Hartland Township, Michigan
Current Conditions -  °F | °C
As of 5:55 AM on Wednesday 22 Oct 2014 (Local Time) from KOZW Reporting Station
Overcast Overcast  
Wind Chill: 38°   Ceiling: 1800
Heat Index: 41°   Visibility: 10mi
Dew Point: 37°   Wind: 5mph
Humidity: 85%   Direction: 340°NNW
Pressure: 30.27"   Gusts: NA
Location:  42.5294°N, 83.7802°W
Report Text: KOZW 220955Z AUTO 34004KT 10SM OVC018 05/03 A3027 RMK AO2 T00500027
Loading
Personal Weather Stations






























Interactive Weather Map
Tropical Storm Tracking
New forecast layout! Learn more

10-Day Weather Forecast

Advertisements
Track Severe Weather on mobile